Time;durP1;ratioP1;P1;durP2;ratioP2;P2;SDS_P1;SDS_P2;PMS_P1;PMS_P2;Temp;Humidity;BMP_temperature;BMP_pressure;BME280_temperature;BME280_humidity;BME280_pressure;Samples;Min_cycle;Max_cycle;Signal;HPM_P1;HPM_P2
2021/11/14 00:00:27;;;;;;;;;;;6.60;52.90;;;;;;4374520;32;19998;-43
2021/11/14 00:02:54;;;;;;;;;;;6.60;52.90;;;;;;4373913;32;20024;-43
2021/11/14 00:05:21;;;;;;;;;;;6.60;53.30;;;;;;4373309;32;19982;-43
2021/11/14 00:07:47;;;;;;;;;;;6.60;54.10;;;;;;4374077;32;19973;-43
2021/11/14 00:10:15;;;;;;;;;;;6.60;55.10;;;;;;4373531;32;19992;-44
2021/11/14 00:12:42;;;;;;;;;;;6.50;56.00;;;;;;4359767;32;19982;-37
2021/11/14 00:15:09;;;;;;;;;;;6.50;56.50;;;;;;4373925;32;19968;-44
2021/11/14 00:17:35;;;;;;;;;;;6.50;56.30;;;;;;4373209;32;19985;-45
2021/11/14 00:20:03;;;;;;;;;;;6.50;56.70;;;;;;4373570;32;20430;-44
2021/11/14 00:22:30;;;;;;;;;;;6.40;57.10;;;;;;4373462;32;20044;-47
2021/11/14 00:24:56;;;;;;;;;;;6.40;57.70;;;;;;4373930;32;19978;-47
2021/11/14 00:27:22;;;;;;;;;;;6.30;57.90;;;;;;4373231;32;19994;-46
2021/11/14 00:29:49;;;;;;;;;;;6.30;58.60;;;;;;4373692;32;19993;-47
2021/11/14 00:32:15;;;;;;;;;;;6.20;58.80;;;;;;4373859;32;19970;-49
2021/11/14 00:34:42;;;;;;;;;;;6.20;59.30;;;;;;4373446;32;19997;-48
2021/11/14 00:37:08;;;;;;;;;;;6.10;59.80;;;;;;4373136;32;20439;-48
2021/11/14 00:39:35;;;;;;;;;;;6.00;60.10;;;;;;4373296;32;20098;-37
2021/11/14 00:42:01;;;;;;;;;;;6.00;60.30;;;;;;4373449;32;19972;-49
2021/11/14 00:44:27;;;;;;;;;;;6.00;60.40;;;;;;4373299;32;19954;-50
2021/11/14 00:46:54;;;;;;;;;;;5.90;60.60;;;;;;4372619;32;20036;-48
2021/11/14 00:49:20;;;;;;;;;;;5.90;60.70;;;;;;4359252;32;20076;-47
2021/11/14 00:51:46;;;;;;;;;;;5.90;60.80;;;;;;4373173;32;20359;-45
2021/11/14 00:54:14;;;;;;;;;;;5.90;61.00;;;;;;4373265;32;19980;-45
2021/11/14 00:56:40;;;;;;;;;;;5.80;61.30;;;;;;4372900;32;19966;-43
2021/11/14 00:59:07;;;;;;;;;;;5.80;61.40;;;;;;4372896;32;19966;-42
2021/11/14 01:01:33;;;;;;;;;;;5.90;61.40;;;;;;4372740;32;19978;-42
2021/11/14 01:04:01;;;;;;;;;;;6.00;61.20;;;;;;4372700;32;20359;-42
2021/11/14 01:06:27;;;;;;;;;;;6.10;61.00;;;;;;4372653;32;20371;-42
2021/11/14 01:08:53;;;;;;;;;;;6.10;60.80;;;;;;4373088;32;19973;-43
2021/11/14 01:11:19;;;;;;;;;;;6.10;60.60;;;;;;4373478;32;19962;-41
2021/11/14 01:13:46;;;;;;;;;;;6.10;61.00;;;;;;4372594;32;20394;-40
2021/11/14 01:16:14;;;;;;;;;;;6.00;60.40;;;;;;4373035;32;20067;-41
2021/11/14 01:18:40;;;;;;;;;;;6.00;60.60;;;;;;4371213;32;19965;-42
2021/11/14 01:21:08;;;;;;;;;;;6.00;59.90;;;;;;4372758;32;20101;-40
2021/11/14 01:23:34;;;;;;;;;;;5.90;59.20;;;;;;4373196;32;19966;-41
2021/11/14 01:26:00;;;;;;;;;;;5.80;57.70;;;;;;4372647;32;19962;-44
2021/11/14 01:28:27;;;;;;;;;;;5.70;57.40;;;;;;4379842;32;20474;-43
2021/11/14 01:30:54;;;;;;;;;;;5.70;57.10;;;;;;4387855;32;19992;-45
2021/11/14 01:33:22;;;;;;;;;;;5.60;56.50;;;;;;4387933;32;19992;-42
2021/11/14 01:35:48;;;;;;;;;;;5.60;56.30;;;;;;4388351;32;20073;-41
2021/11/14 01:38:15;;;;;;;;;;;5.60;55.50;;;;;;4387820;32;19989;-39
2021/11/14 01:40:51;;;;;;;;;;;5.60;55.30;;;;;;4387350;32;19974;-41
2021/11/14 01:43:20;;;;;;;;;;;5.60;54.60;;;;;;4387359;32;19970;-40
2021/11/14 01:45:46;;;;;;;;;;;5.70;54.30;;;;;;4374359;32;19969;-42
2021/11/14 01:48:12;;;;;;;;;;;5.80;53.60;;;;;;4387784;32;20012;-39
2021/11/14 01:50:39;;;;;;;;;;;5.80;53.10;;;;;;4387836;32;19962;-43
2021/11/14 01:53:06;;;;;;;;;;;5.90;52.90;;;;;;4387299;32;20366;-45
2021/11/14 01:55:33;;;;;;;;;;;5.90;52.20;;;;;;4387510;32;20061;-43
2021/11/14 01:58:00;;;;;;;;;;;6.00;52.10;;;;;;4387718;32;19978;-42
2021/11/14 02:00:41;;;;;;;;;;;5.90;52.00;;;;;;4389182;32;19999;-43
2021/11/14 02:03:08;;;;;;;;;;;5.90;52.20;;;;;;4375318;32;19971;-43
2021/11/14 02:05:34;;;;;;;;;;;6.00;52.40;;;;;;4375697;32;19962;-46
2021/11/14 02:08:03;;;;;;;;;;;6.00;52.40;;;;;;4375451;32;20046;-44
2021/11/14 02:10:30;;;;;;;;;;;6.00;52.30;;;;;;4375388;32;19966;-43
2021/11/14 02:12:57;;;;;;;;;;;6.00;52.30;;;;;;4361062;32;20358;-44
2021/11/14 02:15:23;;;;;;;;;;;6.00;52.20;;;;;;4374963;32;20363;-41
2021/11/14 02:17:49;;;;;;;;;;;6.10;52.20;;;;;;4375662;32;20002;-38
2021/11/14 02:20:16;;;;;;;;;;;6.10;52.10;;;;;;4375360;32;19977;-43
2021/11/14 02:22:42;;;;;;;;;;;6.20;52.00;;;;;;4375361;32;20020;-44
2021/11/14 02:25:09;;;;;;;;;;;6.20;52.00;;;;;;4375466;32;20120;-45
2021/11/14 02:27:35;;;;;;;;;;;6.20;51.50;;;;;;4361021;32;20029;-44
2021/11/14 02:30:06;;;;;;;;;;;6.20;51.50;;;;;;4375045;32;19996;-42
2021/11/14 02:32:32;;;;;;;;;;;6.10;51.80;;;;;;4375100;32;20077;-44
2021/11/14 02:34:58;;;;;;;;;;;6.10;52.00;;;;;;4375013;32;19981;-44
2021/11/14 02:37:24;;;;;;;;;;;6.20;52.00;;;;;;4374993;32;19973;-44
2021/11/14 02:39:50;;;;;;;;;;;6.20;51.80;;;;;;4375174;32;19973;-38
2021/11/14 02:42:16;;;;;;;;;;;6.10;51.40;;;;;;4374875;32;20478;-42
2021/11/14 02:44:43;;;;;;;;;;;6.10;51.30;;;;;;4374706;32;19969;-43
2021/11/14 02:47:09;;;;;;;;;;;6.00;51.10;;;;;;4375124;32;19969;-44
2021/11/14 02:49:35;;;;;;;;;;;6.00;50.90;;;;;;4374647;32;20411;-43
2021/11/14 02:52:01;;;;;;;;;;;6.00;50.80;;;;;;4374758;32;19972;-43
2021/11/14 02:54:28;;;;;;;;;;;6.00;50.80;;;;;;4374904;32;19962;-43
2021/11/14 02:56:54;;;;;;;;;;;6.00;50.60;;;;;;4374636;32;19962;-43
2021/11/14 02:59:20;;;;;;;;;;;6.00;50.80;;;;;;4375169;32;19972;-43
2021/11/14 03:01:49;;;;;;;;;;;6.00;50.60;;;;;;4360978;32;19974;-43
2021/11/14 03:04:18;;;;;;;;;;;6.00;50.50;;;;;;4374615;32;19982;-42
2021/11/14 03:06:44;;;;;;;;;;;6.00;50.30;;;;;;4374680;32;19993;-45
2021/11/14 03:09:10;;;;;;;;;;;6.00;50.20;;;;;;4374943;32;20050;-44
2021/11/14 03:11:36;;;;;;;;;;;6.00;49.90;;;;;;4374110;32;19981;-46
2021/11/14 03:14:03;;;;;;;;;;;6.00;49.50;;;;;;4374171;32;20139;-43
2021/11/14 03:16:30;;;;;;;;;;;6.00;49.50;;;;;;4374397;32;20033;-43
2021/11/14 03:18:56;;;;;;;;;;;6.00;49.30;;;;;;4374535;32;19977;-44
2021/11/14 03:21:22;;;;;;;;;;;6.10;49.10;;;;;;4348641;32;20002;-41
2021/11/14 03:23:49;;;;;;;;;;;6.10;48.70;;;;;;4374778;32;20042;-41
2021/11/14 03:26:15;;;;;;;;;;;6.10;48.80;;;;;;4374458;32;19977;-42
2021/11/14 03:28:42;;;;;;;;;;;6.20;48.80;;;;;;4374450;32;19962;-43
2021/11/14 03:31:09;;;;;;;;;;;6.20;48.40;;;;;;4374263;32;19973;-43
2021/11/14 03:33:35;;;;;;;;;;;6.30;48.30;;;;;;4374220;32;19988;-43
2021/11/14 03:36:04;;;;;;;;;;;6.30;48.30;;;;;;4374357;32;19966;-43
2021/11/14 03:38:40;;;;;;;;;;;6.40;48.00;;;;;;4373893;32;20003;-44
2021/11/14 03:41:07;;;;;;;;;;;6.40;47.90;;;;;;4374170;32;20511;-44
2021/11/14 03:43:33;;;;;;;;;;;6.40;47.80;;;;;;4374396;32;20044;-44
2021/11/14 03:46:00;;;;;;;;;;;6.50;47.80;;;;;;4373971;32;19966;-43
2021/11/14 03:48:26;;;;;;;;;;;6.50;47.50;;;;;;4373675;32;20103;-44
2021/11/14 03:50:52;;;;;;;;;;;6.50;47.50;;;;;;4374158;32;20016;-44
2021/11/14 03:53:20;;;;;;;;;;;6.60;47.50;;;;;;4374027;32;20415;-43
2021/11/14 03:55:46;;;;;;;;;;;6.60;47.40;;;;;;4373832;32;19986;-44
2021/11/14 03:58:13;;;;;;;;;;;6.60;47.60;;;;;;4373726;32;20018;-45
2021/11/14 04:00:42;;;;;;;;;;;6.60;47.70;;;;;;4374054;32;19962;-44
2021/11/14 04:03:09;;;;;;;;;;;6.70;47.70;;;;;;4373742;32;19977;-45
2021/11/14 04:05:35;;;;;;;;;;;6.70;47.60;;;;;;4373542;32;19997;-43
2021/11/14 04:08:05;;;;;;;;;;;6.70;47.50;;;;;;4373567;32;20411;-43
2021/11/14 04:10:31;;;;;;;;;;;6.70;47.60;;;;;;4373976;32;19978;-44
2021/11/14 04:12:57;;;;;;;;;;;6.70;47.80;;;;;;4373562;32;20067;-44
2021/11/14 04:15:24;;;;;;;;;;;6.80;47.90;;;;;;4373735;32;20499;-44
2021/11/14 04:17:55;;;;;;;;;;;6.80;47.90;;;;;;4359393;32;19973;-44
2021/11/14 04:20:23;;;;;;;;;;;6.90;48.00;;;;;;4373478;32;20399;-44
2021/11/14 04:22:49;;;;;;;;;;;7.00;48.10;;;;;;4373311;32;19970;-44
2021/11/14 04:25:16;;;;;;;;;;;7.10;48.10;;;;;;4359511;32;20567;-43
2021/11/14 04:27:42;;;;;;;;;;;7.10;48.00;;;;;;4373133;32;20370;-44
2021/11/14 04:30:08;;;;;;;;;;;7.10;48.30;;;;;;4373632;32;19969;-40
2021/11/14 04:32:34;;;;;;;;;;;7.00;48.60;;;;;;4373379;32;19978;-43
2021/11/14 04:35:01;;;;;;;;;;;6.90;48.90;;;;;;4373427;32;20042;-42
2021/11/14 04:37:27;;;;;;;;;;;6.90;49.20;;;;;;4372850;32;20482;-41
2021/11/14 04:39:54;;;;;;;;;;;6.90;49.40;;;;;;4373492;32;20078;-43
2021/11/14 04:42:20;;;;;;;;;;;6.80;49.60;;;;;;4372986;32;19997;-42
2021/11/14 04:44:46;;;;;;;;;;;6.80;49.80;;;;;;4372783;32;19966;-41
2021/11/14 04:47:12;;;;;;;;;;;6.80;50.00;;;;;;4340282;33;19982;-43
2021/11/14 04:49:39;;;;;;;;;;;6.80;50.00;;;;;;4340329;33;20394;-43
2021/11/14 04:52:05;;;;;;;;;;;6.80;50.10;;;;;;4340829;33;20414;-43
2021/11/14 04:54:31;;;;;;;;;;;6.80;50.10;;;;;;4340732;33;20036;-43
2021/11/14 04:56:57;;;;;;;;;;;6.90;50.20;;;;;;4341126;33;19966;-43
2021/11/14 04:59:24;;;;;;;;;;;6.80;50.10;;;;;;4340890;33;20002;-43
2021/11/14 05:01:50;;;;;;;;;;;6.80;50.10;;;;;;4349294;32;20055;-46
2021/11/14 05:04:16;;;;;;;;;;;6.80;50.30;;;;;;4355907;32;19963;-43
2021/11/14 05:06:42;;;;;;;;;;;6.70;50.40;;;;;;4355403;32;20055;-44
2021/11/14 05:09:08;;;;;;;;;;;6.60;51.10;;;;;;4355283;32;19973;-42
2021/11/14 05:11:35;;;;;;;;;;;6.60;50.80;;;;;;4355135;32;20606;-45
2021/11/14 05:14:01;;;;;;;;;;;6.50;51.10;;;;;;4355496;32;19967;-44
2021/11/14 05:16:27;;;;;;;;;;;6.40;51.50;;;;;;4355984;32;19969;-46
2021/11/14 05:18:53;;;;;;;;;;;6.40;51.90;;;;;;4380613;32;19973;-46
2021/11/14 05:21:20;;;;;;;;;;;6.30;52.20;;;;;;4388082;32;19985;-49
2021/11/14 05:23:46;;;;;;;;;;;6.20;53.10;;;;;;4387871;32;20487;-44
2021/11/14 05:26:12;;;;;;;;;;;6.10;53.60;;;;;;4387933;32;19957;-44
2021/11/14 05:28:39;;;;;;;;;;;6.10;53.60;;;;;;4387582;32;19970;-42
2021/11/14 05:31:05;;;;;;;;;;;6.00;53.90;;;;;;4387954;32;19965;-42
2021/11/14 05:33:31;;;;;;;;;;;6.10;54.10;;;;;;4388628;32;20046;-43
2021/11/14 05:35:57;;;;;;;;;;;6.20;54.00;;;;;;4391221;32;20014;-43
2021/11/14 05:38:24;;;;;;;;;;;6.20;53.80;;;;;;4377065;32;19985;-43
2021/11/14 05:40:50;;;;;;;;;;;6.30;53.70;;;;;;4390288;32;20386;-41
2021/11/14 05:43:16;;;;;;;;;;;6.40;53.60;;;;;;4376569;32;19996;-43
2021/11/14 05:45:43;;;;;;;;;;;6.50;53.50;;;;;;4390722;32;20406;-43
2021/11/14 05:48:09;;;;;;;;;;;6.50;53.60;;;;;;4390516;32;20355;-42
2021/11/14 05:50:35;;;;;;;;;;;6.50;53.80;;;;;;4390766;32;19985;-42
2021/11/14 05:53:02;;;;;;;;;;;6.50;53.70;;;;;;4391098;32;20478;-41
2021/11/14 05:55:28;;;;;;;;;;;6.60;53.60;;;;;;4390870;32;19962;-42
2021/11/14 05:57:58;;;;;;;;;;;6.60;53.60;;;;;;4390561;32;20343;-43
2021/11/14 06:03:18;;;;;;;;;;;6.80;53.20;;;;;;4375981;32;19954;-44
2021/11/14 06:05:45;;;;;;;;;;;6.80;52.90;;;;;;4374989;32;19962;-41
2021/11/14 06:08:12;;;;;;;;;;;6.90;52.80;;;;;;4375720;32;20391;-44
2021/11/14 06:10:38;;;;;;;;;;;7.00;52.70;;;;;;4349186;32;19961;-42
2021/11/14 06:13:04;;;;;;;;;;;7.10;52.30;;;;;;4361012;32;20411;-43
2021/11/14 06:15:30;;;;;;;;;;;7.00;51.40;;;;;;4348813;32;20048;-44
2021/11/14 06:17:57;;;;;;;;;;;7.00;51.40;;;;;;4375009;32;19962;-42
2021/11/14 06:20:23;;;;;;;;;;;7.00;51.40;;;;;;4375029;32;19989;-43
2021/11/14 06:22:50;;;;;;;;;;;7.10;51.30;;;;;;4374931;32;19977;-44
2021/11/14 06:25:17;;;;;;;;;;;7.10;51.20;;;;;;4374849;32;19977;-43
2021/11/14 06:27:43;;;;;;;;;;;7.20;51.00;;;;;;4374484;32;20050;-44
2021/11/14 06:30:11;;;;;;;;;;;7.20;50.50;;;;;;4374870;32;19958;-44
2021/11/14 06:32:37;;;;;;;;;;;7.20;50.40;;;;;;4374673;32;20443;-43
2021/11/14 06:35:04;;;;;;;;;;;7.30;50.40;;;;;;4374572;32;20021;-38
2021/11/14 06:37:30;;;;;;;;;;;7.30;50.00;;;;;;4374874;32;20411;-45
2021/11/14 06:39:56;;;;;;;;;;;7.30;49.80;;;;;;4374896;32;19971;-45
2021/11/14 06:42:23;;;;;;;;;;;7.20;50.00;;;;;;4374919;32;19974;-46
2021/11/14 06:44:49;;;;;;;;;;;7.10;50.30;;;;;;4374565;32;20436;-44
2021/11/14 06:47:15;;;;;;;;;;;7.00;50.70;;;;;;4374823;32;20670;-43
2021/11/14 06:49:42;;;;;;;;;;;6.90;50.70;;;;;;4360967;32;19970;-44
2021/11/14 06:52:08;;;;;;;;;;;6.90;50.90;;;;;;4374586;32;20054;-45
2021/11/14 06:54:34;;;;;;;;;;;6.90;50.90;;;;;;4374492;32;20082;-40
2021/11/14 06:57:01;;;;;;;;;;;6.90;51.00;;;;;;4374466;32;20031;-44
2021/11/14 06:59:27;;;;;;;;;;;6.90;51.10;;;;;;4374363;32;19990;-45
2021/11/14 07:01:53;;;;;;;;;;;6.90;50.70;;;;;;4374426;32;20418;-44
2021/11/14 07:04:19;;;;;;;;;;;6.90;50.80;;;;;;4374081;32;20359;-44
2021/11/14 07:06:46;;;;;;;;;;;6.90;50.60;;;;;;4374358;32;19989;-41
2021/11/14 07:09:14;;;;;;;;;;;6.90;50.30;;;;;;4374461;32;19977;-45
2021/11/14 07:11:40;;;;;;;;;;;6.80;49.90;;;;;;4374269;32;20034;-45
2021/11/14 07:14:07;;;;;;;;;;;6.80;49.90;;;;;;4374542;32;20480;-43
2021/11/14 07:16:33;;;;;;;;;;;6.80;50.00;;;;;;4373941;32;19986;-42
2021/11/14 07:18:59;;;;;;;;;;;6.80;49.80;;;;;;4372634;32;19966;-43
2021/11/14 07:21:26;;;;;;;;;;;6.80;49.70;;;;;;4374344;32;20000;-45
2021/11/14 07:23:52;;;;;;;;;;;6.90;49.10;;;;;;4374182;32;19969;-44
2021/11/14 07:26:18;;;;;;;;;;;6.80;48.90;;;;;;4374135;32;20463;-44
2021/11/14 07:28:44;;;;;;;;;;;6.80;49.10;;;;;;4372221;32;19985;-44
2021/11/14 07:31:11;;;;;;;;;;;6.80;49.10;;;;;;4374263;32;19997;-44
2021/11/14 07:33:37;;;;;;;;;;;6.90;49.40;;;;;;4374253;32;20038;-39
2021/11/14 07:36:03;;;;;;;;;;;6.90;48.80;;;;;;4374256;32;20386;-44
2021/11/14 07:38:29;;;;;;;;;;;6.90;48.90;;;;;;4374141;32;19966;-46
2021/11/14 07:40:56;;;;;;;;;;;6.80;48.00;;;;;;4373880;32;19968;-44
2021/11/14 07:43:22;;;;;;;;;;;6.70;47.60;;;;;;4374086;32;20073;-45
2021/11/14 07:45:48;;;;;;;;;;;6.70;47.90;;;;;;4373853;32;19989;-44
2021/11/14 07:48:14;;;;;;;;;;;6.70;47.80;;;;;;4373773;32;19989;-44
2021/11/14 07:50:40;;;;;;;;;;;6.60;47.90;;;;;;4373940;32;20429;-43
2021/11/14 07:53:07;;;;;;;;;;;6.60;47.80;;;;;;4374025;32;19982;-46
2021/11/14 07:55:33;;;;;;;;;;;6.60;47.90;;;;;;4373015;32;20029;-45
2021/11/14 07:58:03;;;;;;;;;;;6.50;47.50;;;;;;4373121;32;20414;-43
2021/11/14 08:00:30;;;;;;;;;;;6.50;47.80;;;;;;4373344;32;20010;-44
2021/11/14 08:02:56;;;;;;;;;;;6.50;47.90;;;;;;4373693;32;20406;-44
2021/11/14 08:05:23;;;;;;;;;;;6.60;48.10;;;;;;4373730;32;19969;-44
2021/11/14 08:07:49;;;;;;;;;;;6.70;48.00;;;;;;4373789;32;19963;-44
2021/11/14 08:10:17;;;;;;;;;;;6.80;47.70;;;;;;4373138;32;20408;-45
2021/11/14 08:12:43;;;;;;;;;;;6.80;47.70;;;;;;4373746;32;20013;-44
2021/11/14 08:15:09;;;;;;;;;;;6.90;47.30;;;;;;4373272;32;19996;-41
2021/11/14 08:17:36;;;;;;;;;;;6.90;47.20;;;;;;4373509;32;19968;-44
2021/11/14 08:20:03;;;;;;;;;;;7.00;47.20;;;;;;4373117;32;20028;-45
2021/11/14 08:22:30;;;;;;;;;;;6.90;47.10;;;;;;4373349;32;19989;-44
2021/11/14 08:24:56;;;;;;;;;;;6.90;47.20;;;;;;4373348;32;20414;-45
2021/11/14 08:27:23;;;;;;;;;;;7.00;47.30;;;;;;4372940;32;19974;-42
2021/11/14 08:29:50;;;;;;;;;;;7.00;47.10;;;;;;4373078;32;19988;-44
2021/11/14 08:32:17;;;;;;;;;;;7.10;47.20;;;;;;4372701;32;19996;-43
2021/11/14 08:34:44;;;;;;;;;;;7.20;46.90;;;;;;4372783;32;19971;-45
2021/11/14 08:37:10;;;;;;;;;;;7.20;46.80;;;;;;4373341;32;19989;-44
2021/11/14 08:39:37;;;;;;;;;;;7.30;46.60;;;;;;4373525;32;20035;-44
2021/11/14 08:42:03;;;;;;;;;;;7.30;46.20;;;;;;4372989;32;20050;-43
2021/11/14 08:44:30;;;;;;;;;;;7.20;46.20;;;;;;4372968;32;19968;-48
2021/11/14 08:46:56;;;;;;;;;;;7.20;45.70;;;;;;4372781;32;20426;-44
2021/11/14 08:49:23;;;;;;;;;;;7.20;46.00;;;;;;4372884;32;20407;-44
2021/11/14 08:51:49;;;;;;;;;;;7.30;45.30;;;;;;4373253;32;19958;-44
2021/11/14 08:54:15;;;;;;;;;;;7.30;44.80;;;;;;4372702;32;19969;-42
2021/11/14 08:56:42;;;;;;;;;;;7.40;44.60;;;;;;4373281;32;19985;-39
2021/11/14 08:59:08;;;;;;;;;;;7.40;43.90;;;;;;4373194;32;20065;-44
2021/11/14 09:01:36;;;;;;;;;;;7.40;43.30;;;;;;4372823;32;20090;-45
2021/11/14 09:04:02;;;;;;;;;;;7.40;43.40;;;;;;4372962;32;19986;-43
2021/11/14 09:06:29;;;;;;;;;;;7.40;43.10;;;;;;4372811;32;19982;-45
2021/11/14 09:08:55;;;;;;;;;;;7.50;43.30;;;;;;4358950;32;19970;-44
2021/11/14 09:11:22;;;;;;;;;;;7.50;43.10;;;;;;4371124;32;20058;-44
2021/11/14 09:13:49;;;;;;;;;;;7.50;43.00;;;;;;4372726;32;19968;-44
2021/11/14 09:16:16;;;;;;;;;;;7.60;43.10;;;;;;4372838;32;19970;-41
2021/11/14 09:18:42;;;;;;;;;;;7.60;42.60;;;;;;4372934;32;20081;-43
2021/11/14 09:21:08;;;;;;;;;;;7.60;42.50;;;;;;4372891;32;19969;-44
2021/11/14 09:23:34;;;;;;;;;;;7.60;42.70;;;;;;4372896;32;19989;-44
2021/11/14 09:26:01;;;;;;;;;;;7.60;42.60;;;;;;4372524;32;19970;-44
2021/11/14 09:28:27;;;;;;;;;;;7.60;42.30;;;;;;4379770;32;20037;-44
2021/11/14 09:30:53;;;;;;;;;;;7.60;42.30;;;;;;4387517;32;19958;-43
2021/11/14 09:33:24;;;;;;;;;;;7.60;42.10;;;;;;4387948;32;19998;-43
2021/11/14 09:35:50;;;;;;;;;;;7.50;41.70;;;;;;4387528;32;20113;-44
2021/11/14 09:38:17;;;;;;;;;;;7.50;41.50;;;;;;4373990;32;19984;-42
2021/11/14 09:40:43;;;;;;;;;;;7.40;42.10;;;;;;4387499;32;20374;-42
2021/11/14 09:43:09;;;;;;;;;;;7.50;42.00;;;;;;4387716;32;20046;-44
2021/11/14 09:45:36;;;;;;;;;;;7.50;41.90;;;;;;4387402;32;20370;-43
2021/11/14 09:48:03;;;;;;;;;;;7.60;41.70;;;;;;4387776;32;19974;-44
2021/11/14 09:50:30;;;;;;;;;;;7.70;41.40;;;;;;4373734;32;20016;-43
2021/11/14 09:52:56;;;;;;;;;;;7.60;41.10;;;;;;4373339;32;19962;-42
2021/11/14 09:55:23;;;;;;;;;;;7.60;40.60;;;;;;4387178;32;19996;-43
2021/11/14 09:57:50;;;;;;;;;;;7.50;41.00;;;;;;4387291;32;20069;-43
2021/11/14 10:00:17;;;;;;;;;;;7.50;41.10;;;;;;4387612;32;19961;-43
2021/11/14 10:02:44;;;;;;;;;;;7.40;41.00;;;;;;4373420;32;20036;-43
2021/11/14 10:05:11;;;;;;;;;;;7.40;41.00;;;;;;4372400;32;20043;-43
2021/11/14 10:07:38;;;;;;;;;;;7.40;41.30;;;;;;4372325;32;20082;-44
2021/11/14 10:10:06;;;;;;;;;;;7.50;41.10;;;;;;4372415;32;20417;-43
2021/11/14 10:12:35;;;;;;;;;;;7.40;40.60;;;;;;4358809;32;19978;-44
2021/11/14 10:15:18;;;;;;;;;;;7.30;40.50;;;;;;4372044;32;19965;-41
2021/11/14 10:17:55;;;;;;;;;;;7.30;41.40;;;;;;4372504;32;20450;-43
2021/11/14 10:20:26;;;;;;;;;;;7.30;40.60;;;;;;4372914;32;19974;-42
2021/11/14 10:23:08;;;;;;;;;;;7.20;40.40;;;;;;4374990;32;20085;-42
2021/11/14 10:25:35;;;;;;;;;;;7.20;40.70;;;;;;4361515;32;20483;-44
2021/11/14 10:28:02;;;;;;;;;;;7.30;40.80;;;;;;4374831;32;19958;-43
2021/11/14 10:30:30;;;;;;;;;;;7.40;40.70;;;;;;4375075;32;19969;-41
2021/11/14 10:32:59;;;;;;;;;;;7.50;40.50;;;;;;4361405;32;20132;-43
2021/11/14 10:35:25;;;;;;;;;;;7.50;40.20;;;;;;4374948;32;19994;-43
2021/11/14 10:37:52;;;;;;;;;;;7.50;40.10;;;;;;4360755;32;19974;-43
2021/11/14 10:40:23;;;;;;;;;;;7.50;40.30;;;;;;4374735;32;19962;-42
2021/11/14 10:42:55;;;;;;;;;;;7.50;40.30;;;;;;4374708;32;20488;-43
2021/11/14 10:45:21;;;;;;;;;;;7.50;40.00;;;;;;4374723;32;19958;-43
2021/11/14 10:47:54;;;;;;;;;;;7.40;40.10;;;;;;4374433;32;20102;-42
2021/11/14 10:50:21;;;;;;;;;;;7.40;39.70;;;;;;4374643;32;20359;-43
2021/11/14 10:52:55;;;;;;;;;;;7.30;39.90;;;;;;4374240;32;19986;-43
2021/11/14 10:55:22;;;;;;;;;;;7.20;39.80;;;;;;4374481;32;20069;-39
2021/11/14 10:57:49;;;;;;;;;;;7.10;39.80;;;;;;4374416;32;20413;-40
2021/11/14 11:00:16;;;;;;;;;;;7.10;40.20;;;;;;4361103;32;19965;-42
2021/11/14 11:02:43;;;;;;;;;;;7.10;40.40;;;;;;4374544;32;19977;-41
2021/11/14 11:05:18;;;;;;;;;;;7.00;40.30;;;;;;4374513;32;20449;-42
2021/11/14 11:08:02;;;;;;;;;;;7.00;40.40;;;;;;4374648;32;19973;-42
2021/11/14 11:10:34;;;;;;;;;;;7.00;40.50;;;;;;4374246;32;19963;-44
2021/11/14 11:13:05;;;;;;;;;;;7.00;40.80;;;;;;4374159;32;19964;-43
2021/11/14 11:15:48;;;;;;;;;;;6.90;40.40;;;;;;4374439;32;20000;-43
2021/11/14 11:18:19;;;;;;;;;;;6.90;40.60;;;;;;4372892;32;19970;-43
2021/11/14 11:20:49;;;;;;;;;;;6.90;40.70;;;;;;4374499;32;19970;-43
2021/11/14 11:23:16;;;;;;;;;;;7.00;40.80;;;;;;4374567;32;20375;-42
2021/11/14 11:25:48;;;;;;;;;;;6.90;40.70;;;;;;4374469;32;20028;-41
2021/11/14 11:28:18;;;;;;;;;;;6.90;41.00;;;;;;4380094;32;20223;-40
2021/11/14 11:31:06;;;;;;;;;;;6.90;41.00;;;;;;4388962;32;20038;-40
2021/11/14 11:33:34;;;;;;;;;;;6.90;41.10;;;;;;4388990;32;19968;-43
2021/11/14 11:36:01;;;;;;;;;;;6.90;40.70;;;;;;4375173;32;19959;-43
2021/11/14 11:38:28;;;;;;;;;;;6.80;40.70;;;;;;4389235;32;19968;-43
2021/11/14 11:40:55;;;;;;;;;;;6.80;40.70;;;;;;4389322;32;20043;-42
2021/11/14 11:43:22;;;;;;;;;;;6.70;40.40;;;;;;4389198;32;19962;-40
2021/11/14 11:45:48;;;;;;;;;;;6.60;40.60;;;;;;4389258;32;19986;-42
2021/11/14 11:48:23;;;;;;;;;;;6.70;41.00;;;;;;4375191;32;20000;-42
2021/11/14 11:50:50;;;;;;;;;;;6.60;40.90;;;;;;4389214;32;19969;-40
2021/11/14 11:53:24;;;;;;;;;;;6.50;40.90;;;;;;4388604;32;20499;-42
2021/11/14 11:56:01;;;;;;;;;;;6.50;41.10;;;;;;4389250;32;19966;-42
2021/11/14 11:58:35;;;;;;;;;;;6.40;41.40;;;;;;4389096;32;20386;-41
2021/11/14 12:01:01;;;;;;;;;;;6.40;41.60;;;;;;4372124;32;19985;-43
2021/11/14 12:03:34;;;;;;;;;;;6.50;41.70;;;;;;4373727;32;20045;-41
2021/11/14 12:06:01;;;;;;;;;;;6.50;41.50;;;;;;4359611;32;20047;-43
2021/11/14 12:08:46;;;;;;;;;;;6.40;41.50;;;;;;4373494;32;19977;-42
2021/11/14 12:11:33;;;;;;;;;;;6.40;41.70;;;;;;4373364;32;20077;-43
2021/11/14 12:14:00;;;;;;;;;;;6.30;41.80;;;;;;4373298;32;20057;-43
2021/11/14 12:16:30;;;;;;;;;;;6.20;41.90;;;;;;4372931;32;20050;-42
2021/11/14 12:18:56;;;;;;;;;;;6.20;41.90;;;;;;4373573;32;19973;-42
2021/11/14 12:21:22;;;;;;;;;;;6.10;41.90;;;;;;4373961;32;20070;-43
2021/11/14 12:23:54;;;;;;;;;;;6.10;41.80;;;;;;4373583;32;19958;-38
2021/11/14 12:26:29;;;;;;;;;;;6.00;42.00;;;;;;4373564;32;20061;-40
2021/11/14 12:28:59;;;;;;;;;;;6.00;42.10;;;;;;4359113;32;20421;-42
2021/11/14 12:31:27;;;;;;;;;;;5.90;42.20;;;;;;4373492;32;19997;-41
2021/11/14 12:33:58;;;;;;;;;;;5.90;42.30;;;;;;4372987;32;20390;-43
2021/11/14 12:36:35;;;;;;;;;;;5.90;42.50;;;;;;4360345;32;19970;-40
2021/11/14 12:39:19;;;;;;;;;;;5.80;42.50;;;;;;4373260;32;19974;-42
2021/11/14 12:41:54;;;;;;;;;;;5.80;42.80;;;;;;4373350;32;19997;-43
2021/11/14 12:44:34;;;;;;;;;;;5.70;42.80;;;;;;4372870;32;20354;-42
2021/11/14 12:47:01;;;;;;;;;;;5.70;43.10;;;;;;4372645;32;20046;-42
2021/11/14 12:49:37;;;;;;;;;;;5.70;43.30;;;;;;4372979;32;20513;-42
2021/11/14 12:52:04;;;;;;;;;;;5.60;43.50;;;;;;4372917;32;20393;-42
2021/11/14 12:54:30;;;;;;;;;;;5.50;43.80;;;;;;4372965;32;19954;-42
2021/11/14 12:56:56;;;;;;;;;;;5.40;44.00;;;;;;4359311;32;19965;-42
2021/11/14 12:59:25;;;;;;;;;;;5.40;44.30;;;;;;4346203;32;19963;-44
2021/11/14 13:01:59;;;;;;;;;;;5.30;44.40;;;;;;4382108;32;20398;-43
2021/11/14 13:04:36;;;;;;;;;;;5.30;44.50;;;;;;4374378;32;19993;-43
2021/11/14 13:07:04;;;;;;;;;;;5.30;44.70;;;;;;4387463;32;19970;-43
2021/11/14 13:09:32;;;;;;;;;;;5.30;44.90;;;;;;4373851;32;19981;-43
2021/11/14 13:12:06;;;;;;;;;;;5.20;44.90;;;;;;4387610;32;19998;-44
2021/11/14 13:14:38;;;;;;;;;;;5.20;45.00;;;;;;4387718;32;20119;-43
2021/11/14 13:17:09;;;;;;;;;;;5.20;45.00;;;;;;4387661;32;19974;-43
2021/11/14 13:19:36;;;;;;;;;;;5.10;45.10;;;;;;4355505;32;20125;-44
2021/11/14 13:22:02;;;;;;;;;;;5.10;45.20;;;;;;4355247;32;19971;-43
2021/11/14 13:24:28;;;;;;;;;;;5.10;45.50;;;;;;4355095;32;19966;-43
2021/11/14 13:27:02;;;;;;;;;;;5.00;45.60;;;;;;4355208;32;19997;-44
2021/11/14 13:29:30;;;;;;;;;;;5.00;46.00;;;;;;4354809;32;20618;-44
2021/11/14 13:32:01;;;;;;;;;;;4.90;46.00;;;;;;4355325;32;19978;-44
2021/11/14 13:34:29;;;;;;;;;;;4.90;46.10;;;;;;4342923;32;20454;-37
2021/11/14 13:37:00;;;;;;;;;;;4.90;46.10;;;;;;4355638;32;19997;-43
2021/11/14 13:39:35;;;;;;;;;;;4.90;46.10;;;;;;4355148;32;20474;-45
2021/11/14 13:42:15;;;;;;;;;;;5.00;46.10;;;;;;4355570;32;19963;-44
2021/11/14 13:44:43;;;;;;;;;;;5.00;46.10;;;;;;4354997;32;19973;-43
2021/11/14 13:47:14;;;;;;;;;;;4.90;45.90;;;;;;4355283;32;19973;-40
2021/11/14 13:49:41;;;;;;;;;;;4.90;46.10;;;;;;4358869;32;19978;-45
2021/11/14 13:52:10;;;;;;;;;;;4.80;46.20;;;;;;4387663;32;19961;-44
2021/11/14 13:54:57;;;;;;;;;;;4.80;46.30;;;;;;4387592;32;20066;-43
2021/11/14 13:57:25;;;;;;;;;;;4.80;46.30;;;;;;4390298;32;19970;-43
2021/11/14 13:59:52;;;;;;;;;;;4.70;46.50;;;;;;4390639;32;20042;-42
2021/11/14 14:02:18;;;;;;;;;;;4.70;46.60;;;;;;4346094;32;19994;-43
2021/11/14 14:04:55;;;;;;;;;;;4.60;46.70;;;;;;4343257;33;20048;-45
2021/11/14 14:07:22;;;;;;;;;;;4.60;46.70;;;;;;4342587;33;19981;-45
2021/11/14 14:10:01;;;;;;;;;;;4.60;46.70;;;;;;4343172;33;20888;-44
2021/11/14 14:12:28;;;;;;;;;;;4.60;46.80;;;;;;4343242;33;20046;-44
2021/11/14 14:14:56;;;;;;;;;;;4.60;46.70;;;;;;4342842;33;19970;-43
2021/11/14 14:17:27;;;;;;;;;;;4.60;46.80;;;;;;4343034;33;20071;-45
2021/11/14 14:19:59;;;;;;;;;;;4.60;46.80;;;;;;4343138;33;19967;-46
2021/11/14 14:22:48;;;;;;;;;;;4.50;46.70;;;;;;4343208;33;20169;-44
2021/11/14 14:25:19;;;;;;;;;;;4.50;46.80;;;;;;4342815;33;20077;-44
2021/11/14 14:27:47;;;;;;;;;;;4.40;46.80;;;;;;4345450;32;19978;-44
2021/11/14 14:30:15;;;;;;;;;;;4.40;46.80;;;;;;4357534;32;20531;-43
2021/11/14 14:32:58;;;;;;;;;;;4.40;46.90;;;;;;4358502;32;20028;-42
2021/11/14 14:35:38;;;;;;;;;;;4.40;46.80;;;;;;4359738;32;20419;-40
2021/11/14 14:38:09;;;;;;;;;;;4.30;46.90;;;;;;4359986;32;20463;-44